createdAt,value
2018-03-18T00:00:17.848Z,99361.16
2018-03-18T00:02:46.915Z,99365.70
2018-03-18T00:05:15.902Z,99360.62
2018-03-18T00:07:47.013Z,99363.31
2018-03-18T00:10:16.015Z,99364.80
2018-03-18T00:12:45.187Z,99366.39
2018-03-18T00:15:14.443Z,99369.70
2018-03-18T00:17:43.494Z,99372.92
2018-03-18T00:20:12.401Z,99373.34
2018-03-18T00:22:41.815Z,99371.69
2018-03-18T00:25:10.724Z,99376.10
2018-03-18T00:27:41.468Z,99380.91
2018-03-18T00:30:10.626Z,99379.11
2018-03-18T00:32:39.580Z,99372.30
2018-03-18T00:35:11.330Z,99376.28
2018-03-18T00:37:40.846Z,99369.30
2018-03-18T00:40:09.759Z,99374.08
2018-03-18T00:42:39.228Z,99377.02
2018-03-18T00:45:08.132Z,99373.03
2018-03-18T00:47:38.303Z,99370.99
2018-03-18T00:50:07.639Z,99365.90
2018-03-18T00:52:36.548Z,99366.39
2018-03-18T00:55:05.452Z,99365.83
2018-03-18T00:57:34.757Z,99363.75
2018-03-18T01:00:04.985Z,99369.14
2018-03-18T01:02:33.875Z,99369.70
2018-03-18T01:05:03.672Z,99372.28
2018-03-18T01:07:32.537Z,99360.97
2018-03-18T01:10:03.655Z,99364.55
2018-03-18T01:12:33.678Z,99359.00
2018-03-18T01:15:03.174Z,99362.82
2018-03-18T01:17:32.507Z,99352.19
2018-03-18T01:20:02.360Z,99353.05
2018-03-18T01:22:31.212Z,99350.95
2018-03-18T01:25:00.813Z,99348.69
2018-03-18T01:27:30.142Z,99347.56
2018-03-18T01:29:59.285Z,99345.30
2018-03-18T01:32:28.613Z,99342.11
2018-03-18T01:34:57.661Z,99341.87
2018-03-18T01:37:27.720Z,99338.77
2018-03-18T01:39:57.167Z,99336.15
2018-03-18T01:42:26.218Z,99340.13
2018-03-18T01:44:55.875Z,99336.38
2018-03-18T01:47:27.439Z,99327.61
2018-03-18T01:49:56.393Z,99328.94
2018-03-18T01:52:25.290Z,99332.33
2018-03-18T01:54:54.215Z,99325.46
2018-03-18T01:57:23.062Z,99323.00
2018-03-18T01:59:53.252Z,99324.83
2018-03-18T02:02:22.135Z,99325.88
2018-03-18T02:04:50.991Z,99319.91
2018-03-18T02:07:20.189Z,99321.63
2018-03-18T02:09:49.141Z,99316.02
2018-03-18T02:12:18.102Z,99316.30
2018-03-18T02:14:48.971Z,99311.94
2018-03-18T02:17:19.586Z,99307.68
2018-03-18T02:19:50.016Z,99312.48
2018-03-18T02:22:20.029Z,99312.53
2018-03-18T02:24:49.813Z,99304.37
2018-03-18T02:27:19.146Z,99307.08
2018-03-18T02:29:49.907Z,99304.09
2018-03-18T02:32:18.914Z,99304.37
2018-03-18T02:34:50.402Z,99301.18
2018-03-18T02:37:22.472Z,99300.81
2018-03-18T02:39:51.679Z,99299.58
2018-03-18T02:42:22.064Z,99296.18
2018-03-18T02:44:50.943Z,99297.30
2018-03-18T02:47:19.786Z,99296.11
2018-03-18T02:49:49.282Z,99298.58
2018-03-18T02:52:21.516Z,99297.05
2018-03-18T02:54:52.345Z,99295.70
2018-03-18T02:57:21.897Z,99297.49
2018-03-18T02:59:50.793Z,99293.55
2018-03-18T03:02:19.849Z,99296.12
2018-03-18T03:04:49.242Z,99298.20
2018-03-18T03:07:18.169Z,99298.05
2018-03-18T03:09:47.871Z,99300.81
2018-03-18T03:12:16.743Z,99298.33
2018-03-18T03:14:45.839Z,99298.41
2018-03-18T03:17:15.182Z,99299.27
2018-03-18T03:19:44.804Z,99293.62
2018-03-18T03:22:13.730Z,99299.00
2018-03-18T03:24:43.178Z,99300.07
2018-03-18T03:27:12.236Z,99297.66
2018-03-18T03:29:41.211Z,99299.51
2018-03-18T03:32:10.439Z,99294.16
2018-03-18T03:34:39.309Z,99297.17
2018-03-18T03:37:08.242Z,99296.27
2018-03-18T03:39:37.496Z,99296.20
2018-03-18T03:42:06.475Z,99300.85
2018-03-18T03:44:35.367Z,99294.47
2018-03-18T03:47:04.353Z,99294.09
2018-03-18T03:49:33.246Z,99295.89
2018-03-18T03:52:03.455Z,99292.20
2018-03-18T03:54:32.343Z,99288.51
2018-03-18T03:57:01.245Z,99292.06
2018-03-18T03:59:30.612Z,99290.47
2018-03-18T04:01:59.632Z,99288.20
2018-03-18T04:04:28.991Z,99291.22
2018-03-18T04:06:58.263Z,99288.58
2018-03-18T04:09:27.162Z,99290.73
2018-03-18T04:11:56.015Z,99293.78
2018-03-18T04:14:25.295Z,99295.83
2018-03-18T04:16:54.180Z,99292.06
2018-03-18T04:19:23.111Z,99292.92
2018-03-18T04:21:52.412Z,99298.58
2018-03-18T04:24:21.294Z,99292.63
2018-03-18T04:26:50.174Z,99299.23
2018-03-18T04:29:19.173Z,99290.91
2018-03-18T04:31:47.954Z,99300.35
2018-03-18T04:34:17.628Z,99300.69
2018-03-18T04:36:46.727Z,99297.34
2018-03-18T04:39:15.625Z,99297.91
2018-03-18T04:41:44.852Z,99298.32
2018-03-18T04:44:13.755Z,99292.43
2018-03-18T04:46:42.691Z,99299.23
2018-03-18T04:49:11.921Z,99300.54
2018-03-18T04:51:40.826Z,99302.69
2018-03-18T04:54:09.817Z,99304.95
2018-03-18T04:56:39.114Z,99302.80
2018-03-18T04:59:08.068Z,99299.73
2018-03-18T05:01:37.117Z,99310.38
2018-03-18T05:04:06.647Z,99305.70
2018-03-18T05:06:35.562Z,99297.41
2018-03-18T05:09:04.764Z,99310.73
2018-03-18T05:11:33.667Z,99309.38
2018-03-18T05:14:03.129Z,99307.19
2018-03-18T05:16:32.525Z,99312.47
2018-03-18T05:19:01.434Z,99309.45
2018-03-18T05:21:30.276Z,99310.73
2018-03-18T05:23:59.552Z,99314.61
2018-03-18T05:26:28.424Z,99317.57
2018-03-18T05:28:57.322Z,99319.81
2018-03-18T05:31:26.587Z,99319.77
2018-03-18T05:33:55.480Z,99325.73
2018-03-18T05:36:24.360Z,99326.92
2018-03-18T05:38:53.835Z,99329.59
2018-03-18T05:41:22.751Z,99331.59
2018-03-18T05:43:51.997Z,99337.53
2018-03-18T05:46:21.375Z,99344.79
2018-03-18T05:48:50.246Z,99344.73
2018-03-18T05:51:19.114Z,99346.89
2018-03-18T05:53:48.462Z,99349.11
2018-03-18T05:56:17.379Z,99354.56
2018-03-18T05:58:46.396Z,99358.73
2018-03-18T06:02:18.313Z,99354.67
2018-03-18T06:04:47.338Z,99351.79
2018-03-18T06:07:17.477Z,99365.09
2018-03-18T06:09:46.661Z,99360.44
2018-03-18T06:12:15.654Z,99362.59
2018-03-18T06:14:44.927Z,99364.25
2018-03-18T06:17:14.314Z,99369.78
2018-03-18T06:19:44.924Z,99375.30
2018-03-18T06:22:15.302Z,99376.22
2018-03-18T06:24:44.823Z,99375.91
2018-03-18T06:27:14.493Z,99382.84
2018-03-18T06:29:43.791Z,99379.88
2018-03-18T06:32:13.154Z,99375.30
2018-03-18T06:34:43.746Z,99378.20
2018-03-18T06:37:12.701Z,99380.45
2018-03-18T06:39:41.647Z,99379.55
2018-03-18T06:42:11.019Z,99386.53
2018-03-18T06:44:40.339Z,99383.73
2018-03-18T06:47:09.681Z,99391.48
2018-03-18T06:49:38.710Z,99393.15
2018-03-18T06:52:07.703Z,99400.03
2018-03-18T06:54:36.701Z,99395.08
2018-03-18T06:57:05.727Z,99408.31
2018-03-18T06:59:34.730Z,99408.96
2018-03-18T07:02:05.141Z,99405.73
2018-03-18T07:04:34.106Z,99410.67
2018-03-18T07:07:03.659Z,99416.75
2018-03-18T07:09:32.954Z,99410.14
2018-03-18T07:12:03.801Z,99421.00
2018-03-18T07:14:32.863Z,99422.98
2018-03-18T07:17:03.148Z,99420.45
2018-03-18T07:19:32.416Z,99424.55
2018-03-18T07:22:01.859Z,99428.86
2018-03-18T07:24:31.359Z,99432.94
2018-03-18T07:27:00.406Z,99437.66
2018-03-18T07:29:29.403Z,99435.04
2018-03-18T07:31:58.568Z,99437.17
2018-03-18T07:34:27.643Z,99443.52
2018-03-18T07:36:57.037Z,99446.27
2018-03-18T07:39:26.029Z,99445.61
2018-03-18T07:41:54.999Z,99451.20
2018-03-18T07:44:24.512Z,99452.59
2018-03-18T07:46:53.825Z,99457.16
2018-03-18T07:49:23.303Z,99471.72
2018-03-18T07:51:53.265Z,99468.77
2018-03-18T07:54:22.337Z,99465.81
2018-03-18T07:56:51.292Z,99470.86
2018-03-18T07:59:20.566Z,99472.06
2018-03-18T08:01:49.769Z,99478.81
2018-03-18T08:04:18.962Z,99477.86
2018-03-18T08:06:48.491Z,99479.03
2018-03-18T08:09:17.492Z,99484.62
2018-03-18T08:11:46.757Z,99485.81
2018-03-18T08:14:16.229Z,99483.66
2018-03-18T08:16:45.273Z,99486.42
2018-03-18T08:19:14.590Z,99485.50
2018-03-18T08:21:43.497Z,99482.43
2018-03-18T08:24:12.462Z,99483.25
2018-03-18T08:26:42.022Z,99488.20
2018-03-18T08:29:11.376Z,99489.65
2018-03-18T08:31:40.496Z,99484.48
2018-03-18T08:34:09.922Z,99490.88
2018-03-18T08:36:39.116Z,99490.02
2018-03-18T08:39:07.568Z,99494.48
2018-03-18T08:41:37.887Z,99491.95
2018-03-18T08:44:07.037Z,99499.15
2018-03-18T08:46:36.129Z,99499.80
2018-03-18T08:49:05.613Z,99503.23
2018-03-18T08:51:34.580Z,99502.20
2018-03-18T08:54:04.624Z,99508.23
2018-03-18T08:56:33.502Z,99507.32
2018-03-18T08:59:03.545Z,99504.86
2018-03-18T09:01:33.909Z,99504.58
2018-03-18T09:04:05.611Z,99511.40
2018-03-18T09:06:34.851Z,99520.44
2018-03-18T09:09:05.188Z,99514.24
2018-03-18T09:11:34.135Z,99512.46
2018-03-18T09:14:04.988Z,99518.11
2018-03-18T09:16:34.386Z,99515.96
2018-03-18T09:19:07.886Z,99516.55
2018-03-18T09:21:37.064Z,99516.84
2018-03-18T09:24:09.310Z,99522.76
2018-03-18T09:26:38.678Z,99517.52
2018-03-18T09:29:08.118Z,99520.30
2018-03-18T09:31:37.665Z,99516.81
2018-03-18T09:34:06.678Z,99517.72
2018-03-18T09:36:35.896Z,99507.57
2018-03-18T09:39:05.341Z,99517.36
2018-03-18T09:41:34.336Z,99514.23
2018-03-18T09:44:05.219Z,99516.80
2018-03-18T09:46:34.204Z,99516.37
2018-03-18T09:49:03.602Z,99519.02
2018-03-18T09:51:34.140Z,99511.41
2018-03-18T09:54:04.630Z,99524.48
2018-03-18T09:56:33.882Z,99523.94
2018-03-18T09:59:05.333Z,99516.18
2018-03-18T10:01:34.608Z,99529.75
2018-03-18T10:04:05.199Z,99520.81
2018-03-18T10:06:34.491Z,99517.92
2018-03-18T10:09:04.220Z,99527.28
2018-03-18T10:11:33.343Z,99529.81
2018-03-18T10:14:05.166Z,99521.36
2018-03-18T10:16:34.247Z,99528.25
2018-03-18T10:19:04.671Z,99520.61
2018-03-18T10:21:33.732Z,99531.70
2018-03-18T10:24:04.968Z,99536.56
2018-03-18T10:26:34.440Z,99530.41
2018-03-18T10:29:03.554Z,99538.06
2018-03-18T10:31:32.736Z,99537.48
2018-03-18T10:34:06.159Z,99540.45
2018-03-18T10:36:35.347Z,99540.98
2018-03-18T10:39:05.332Z,99544.02
2018-03-18T10:41:34.604Z,99548.03
2018-03-18T10:44:05.551Z,99542.37
2018-03-18T10:46:34.493Z,99550.28
2018-03-18T10:49:04.715Z,99548.39
2018-03-18T10:51:33.710Z,99558.60
2018-03-18T10:54:05.647Z,99560.22
2018-03-18T10:56:34.593Z,99552.27
2018-03-18T10:59:04.802Z,99557.38
2018-03-18T11:01:38.883Z,99557.63
2018-03-18T11:04:11.527Z,99558.00
2018-03-18T11:06:41.111Z,99565.13
2018-03-18T11:09:10.430Z,99561.49
2018-03-18T11:11:39.584Z,99558.36
2018-03-18T11:14:09.170Z,99556.53
2018-03-18T11:16:38.098Z,99549.88
2018-03-18T11:19:07.101Z,99560.70
2018-03-18T11:21:37.233Z,99560.77
2018-03-18T11:24:06.703Z,99564.52
2018-03-18T11:26:35.697Z,99557.09
2018-03-18T11:29:05.274Z,99559.25
2018-03-18T11:31:34.367Z,99572.38
2018-03-18T11:34:04.987Z,99569.60
2018-03-18T11:36:34.464Z,99567.68
2018-03-18T11:39:06.599Z,99563.73
2018-03-18T11:41:36.016Z,99564.08
2018-03-18T11:44:07.949Z,99565.58
2018-03-18T11:46:37.303Z,99568.89
2018-03-18T11:49:06.397Z,99568.81
2018-03-18T11:51:37.083Z,99567.88
2018-03-18T11:54:06.075Z,99567.47
2018-03-18T11:56:35.007Z,99562.88
2018-03-18T11:59:05.209Z,99559.44
2018-03-18T12:01:34.290Z,99560.77
2018-03-18T12:04:04.155Z,99562.23
2018-03-18T12:06:34.540Z,99564.78
2018-03-18T12:09:05.191Z,99571.42
2018-03-18T12:11:34.126Z,99559.16
2018-03-18T12:14:05.225Z,99566.16
2018-03-18T12:16:34.545Z,99558.52
2018-03-18T12:19:04.272Z,99565.92
2018-03-18T12:21:33.269Z,99560.66
2018-03-18T12:24:05.279Z,99560.39
2018-03-18T12:26:34.919Z,99555.77
2018-03-18T12:29:05.457Z,99560.02
2018-03-18T12:31:34.431Z,99558.88
2018-03-18T12:34:07.649Z,99553.64
2018-03-18T12:36:36.783Z,99556.41
2018-03-18T12:39:06.608Z,99558.36
2018-03-18T12:41:36.701Z,99553.09
2018-03-18T12:44:06.842Z,99552.92
2018-03-18T12:46:43.367Z,99557.03
2018-03-18T12:49:12.743Z,99550.13
2018-03-18T12:51:42.337Z,99558.47
2018-03-18T12:54:11.386Z,99559.37
2018-03-18T12:56:42.035Z,99558.37
2018-03-18T12:59:11.760Z,99557.59
2018-03-18T13:01:40.858Z,99560.59
2018-03-18T13:04:09.973Z,99567.66
2018-03-18T13:06:40.514Z,99565.34
2018-03-18T13:09:09.443Z,99568.80
2018-03-18T13:11:38.619Z,99565.17
2018-03-18T13:14:09.200Z,99569.13
2018-03-18T13:16:38.092Z,99570.41
2018-03-18T13:19:06.988Z,99573.30
2018-03-18T13:21:40.847Z,99564.15
2018-03-18T13:24:10.228Z,99569.73
2018-03-18T13:26:39.183Z,99563.47
2018-03-18T13:29:09.770Z,99556.83
2018-03-18T13:31:38.749Z,99558.36
2018-03-18T13:34:08.240Z,99564.46
2018-03-18T13:36:37.742Z,99567.23
2018-03-18T13:39:07.014Z,99558.37
2018-03-18T13:41:36.052Z,99556.26
2018-03-18T13:47:06.273Z,99573.13
2018-03-18T13:49:36.032Z,99575.32
2018-03-18T13:52:06.121Z,99574.05
2018-03-18T13:54:35.317Z,99575.41
2018-03-18T13:57:05.526Z,99577.86
2018-03-18T13:59:34.723Z,99569.77
2018-03-18T14:02:05.328Z,99582.97
2018-03-18T14:04:35.966Z,99573.77
2018-03-18T14:07:06.326Z,99579.69
2018-03-18T14:09:35.281Z,99580.98
2018-03-18T14:12:07.757Z,99585.34
2018-03-18T14:14:36.703Z,99579.33
2018-03-18T14:17:05.978Z,99580.53
2018-03-18T14:19:35.347Z,99579.66
2018-03-18T14:22:05.347Z,99570.88
2018-03-18T14:24:34.348Z,99582.33
2018-03-18T14:27:04.154Z,99577.72
2018-03-18T14:29:33.044Z,99580.44
2018-03-18T14:32:04.378Z,99582.08
2018-03-18T14:34:34.290Z,99587.00
2018-03-18T14:37:05.387Z,99592.67
2018-03-18T14:39:34.965Z,99591.97
2018-03-18T14:42:05.572Z,99592.70
2018-03-18T14:44:35.738Z,99599.77
2018-03-18T14:47:06.111Z,99604.31
2018-03-18T14:49:35.068Z,99608.30
2018-03-18T14:52:06.177Z,99605.32
2018-03-18T14:54:35.892Z,99606.04
2018-03-18T14:57:07.828Z,99611.53
2018-03-18T14:59:38.074Z,99612.08
2018-03-18T15:02:07.661Z,99618.64
2018-03-18T15:04:37.006Z,99624.49
2018-03-18T15:07:07.689Z,99627.05
2018-03-18T15:09:37.169Z,99628.73
2018-03-18T15:12:06.523Z,99630.16
2018-03-18T15:14:35.817Z,99631.27
2018-03-18T15:17:05.906Z,99631.27
2018-03-18T15:19:35.206Z,99634.05
2018-03-18T15:22:05.267Z,99637.75
2018-03-18T15:24:34.257Z,99636.53
2018-03-18T15:27:16.937Z,99634.91
2018-03-18T15:29:46.575Z,99648.80
2018-03-18T15:32:15.928Z,99648.77
2018-03-18T15:34:45.023Z,99653.78
2018-03-18T15:37:14.362Z,99652.48
2018-03-18T15:39:43.292Z,99657.82
2018-03-18T15:42:12.266Z,99657.73
2018-03-18T15:44:41.438Z,99655.01
2018-03-18T15:47:10.650Z,99657.16
2018-03-18T15:49:41.044Z,99665.17
2018-03-18T15:52:12.680Z,99660.70
2018-03-18T15:54:41.708Z,99667.91
2018-03-18T15:57:13.868Z,99669.12
2018-03-18T15:59:43.050Z,99671.65
2018-03-18T16:02:12.003Z,99675.45
2018-03-18T16:04:41.457Z,99670.08
2018-03-18T16:07:10.346Z,99682.58
2018-03-18T16:09:39.692Z,99688.52
2018-03-18T16:12:09.834Z,99687.59
2018-03-18T16:14:38.803Z,99689.15
2018-03-18T16:17:08.725Z,99696.22
2018-03-18T16:19:38.953Z,99700.96
2018-03-18T16:22:07.994Z,99694.33
2018-03-18T16:24:37.166Z,99709.32
2018-03-18T16:27:06.130Z,99715.50
2018-03-18T16:31:44.957Z,99710.11
2018-03-18T16:34:16.277Z,99720.67
2018-03-18T16:36:45.274Z,99717.34
2018-03-18T16:39:14.408Z,99714.09
2018-03-18T16:41:43.372Z,99721.44
2018-03-18T16:44:12.389Z,99727.71
2018-03-18T16:46:41.732Z,99725.42
2018-03-18T16:49:11.586Z,99732.34
2018-03-18T16:51:41.595Z,99737.29
2018-03-18T16:54:11.084Z,99736.33
2018-03-18T16:56:40.031Z,99743.61
2018-03-18T16:59:10.572Z,99749.16
2018-03-18T17:01:39.944Z,99743.97
2018-03-18T17:04:09.704Z,99750.58
2018-03-18T17:06:38.889Z,99756.52
2018-03-18T17:09:07.843Z,99756.33
2018-03-18T17:11:36.899Z,99759.91
2018-03-18T17:14:06.710Z,99766.86
2018-03-18T17:16:35.620Z,99764.28
2018-03-18T17:19:04.677Z,99774.77
2018-03-18T17:21:34.017Z,99771.63
2018-03-18T17:24:04.721Z,99778.30
2018-03-18T17:26:33.650Z,99773.72
2018-03-18T17:29:04.007Z,99782.05
2018-03-18T17:31:33.078Z,99792.41
2018-03-18T17:34:04.214Z,99796.25
2018-03-18T17:36:33.584Z,99805.49
2018-03-18T17:39:03.172Z,99806.53
2018-03-18T17:41:32.316Z,99801.83
2018-03-18T17:44:03.171Z,99809.72
2018-03-18T17:48:45.915Z,99814.23
2018-03-18T17:51:25.909Z,99813.44
2018-03-18T17:56:07.142Z,99827.25
2018-03-18T17:58:36.332Z,99826.74
2018-03-18T18:01:05.624Z,99829.95
2018-03-18T18:03:35.055Z,99831.30
2018-03-18T18:06:05.581Z,99835.14
2018-03-18T18:08:34.771Z,99835.57
2018-03-18T18:11:04.963Z,99835.86
2018-03-18T18:13:33.838Z,99835.63
2018-03-18T18:16:03.314Z,99840.11
2018-03-18T18:18:32.676Z,99844.70
2018-03-18T18:21:01.845Z,99847.25
2018-03-18T18:23:30.751Z,99846.94
2018-03-18T18:26:00.118Z,99851.03
2018-03-18T18:28:29.053Z,99852.27
2018-03-18T18:30:57.957Z,99851.25
2018-03-18T18:33:26.846Z,99855.62
2018-03-18T18:35:55.792Z,99860.30
2018-03-18T18:38:25.191Z,99868.34
2018-03-18T18:40:54.214Z,99864.13
2018-03-18T18:43:23.265Z,99866.90
2018-03-18T18:45:52.517Z,99876.12
2018-03-18T18:48:21.454Z,99876.44
2018-03-18T18:50:50.471Z,99882.86
2018-03-18T18:53:19.794Z,99885.11
2018-03-18T18:55:48.900Z,99885.23
2018-03-18T18:58:17.829Z,99889.97
2018-03-18T19:00:47.022Z,99891.53
2018-03-18T19:03:15.909Z,99897.20
2018-03-18T19:05:44.809Z,99896.05
2018-03-18T19:08:14.285Z,99900.00
2018-03-18T19:10:43.277Z,99896.00
2018-03-18T19:13:13.784Z,99898.48
2018-03-18T19:15:42.813Z,99905.61
2018-03-18T19:18:11.686Z,99905.98
2018-03-18T19:20:41.500Z,99900.91
2018-03-18T19:23:10.543Z,99902.63
2018-03-18T19:25:39.841Z,99908.19
2018-03-18T19:28:09.187Z,99907.23
2018-03-18T19:30:38.193Z,99906.04
2018-03-18T19:33:07.124Z,99908.69
2018-03-18T19:35:38.093Z,99908.19
2018-03-18T19:38:06.992Z,99909.20
2018-03-18T19:40:36.191Z,99908.25
2018-03-18T19:43:05.576Z,99898.86
2018-03-18T19:45:34.444Z,99904.52
2018-03-18T19:48:05.594Z,99902.86
2018-03-18T19:50:35.021Z,99908.66
2018-03-18T19:53:04.480Z,99903.88
2018-03-18T19:55:34.821Z,99913.51
2018-03-18T19:58:04.675Z,99908.34
2018-03-18T20:00:33.631Z,99906.72
2018-03-18T20:03:04.241Z,99914.05
2018-03-18T20:05:33.243Z,99915.20
2018-03-18T20:08:03.321Z,99921.19
2018-03-18T20:10:32.846Z,99916.16
2018-03-18T20:13:02.606Z,99927.80
2018-03-18T20:15:31.558Z,99925.61
2018-03-18T20:18:01.712Z,99926.70
2018-03-18T20:20:30.789Z,99928.85
2018-03-18T20:23:00.274Z,99932.26
2018-03-18T20:25:30.467Z,99931.53
2018-03-18T20:27:59.791Z,99931.87
2018-03-18T20:30:28.731Z,99935.89
2018-03-18T20:32:58.003Z,99934.36
2018-03-18T20:35:26.885Z,99935.13
2018-03-18T20:37:55.809Z,99935.38
2018-03-18T20:40:25.085Z,99940.91
2018-03-18T20:42:53.965Z,99936.33
2018-03-18T20:45:23.220Z,99936.09
2018-03-18T20:47:52.751Z,99937.67
2018-03-18T20:50:21.622Z,99940.73
2018-03-18T20:52:50.902Z,99941.88
2018-03-18T20:55:19.815Z,99938.81
2018-03-18T20:57:48.893Z,99940.01
2018-03-18T21:00:18.220Z,99939.69
2018-03-18T21:02:47.351Z,99940.55
2018-03-18T21:05:16.270Z,99946.24
2018-03-18T21:07:45.554Z,99945.89
2018-03-18T21:10:14.640Z,99939.09
2018-03-18T21:12:43.521Z,99944.12
2018-03-18T21:15:13.836Z,99941.98
2018-03-18T21:17:42.786Z,99944.56
2018-03-18T21:20:11.724Z,99946.84
2018-03-18T21:22:41.771Z,99942.94
2018-03-18T21:25:10.861Z,99951.07
2018-03-18T21:27:40.083Z,99946.24
2018-03-18T21:30:09.242Z,99945.84
2018-03-18T21:32:38.744Z,99949.59
2018-03-18T21:35:08.022Z,99949.25
2018-03-18T21:37:36.974Z,99944.52
2018-03-18T21:40:06.593Z,99945.61
2018-03-18T21:42:35.809Z,99947.29
2018-03-18T21:45:06.949Z,99948.11
2018-03-18T21:47:35.889Z,99950.73
2018-03-18T21:50:06.710Z,99949.48
2018-03-18T21:52:35.586Z,99950.22
2018-03-18T21:55:05.299Z,99950.16
2018-03-18T21:57:34.577Z,99949.78
2018-03-18T22:00:04.484Z,99951.34
2018-03-18T22:02:33.392Z,99948.97
2018-03-18T22:05:03.274Z,99948.53
2018-03-18T22:07:32.203Z,99946.58
2018-03-18T22:10:02.364Z,99947.43
2018-03-18T22:12:31.284Z,99947.06
2018-03-18T22:15:00.235Z,99948.78
2018-03-18T22:17:30.552Z,99948.53
2018-03-18T22:19:59.492Z,99947.63
2018-03-18T22:22:28.446Z,99952.31
2018-03-18T22:24:59.542Z,99947.28
2018-03-18T22:27:28.458Z,99954.52
2018-03-18T22:29:57.729Z,99951.41
2018-03-18T22:32:26.648Z,99954.56
2018-03-18T22:34:55.531Z,99952.89
2018-03-18T22:37:25.302Z,99954.04
2018-03-18T22:39:54.788Z,99953.13
2018-03-18T22:42:23.807Z,99947.19
2018-03-18T22:44:52.748Z,99945.91
2018-03-18T22:47:21.602Z,99952.94
2018-03-18T22:49:50.597Z,99951.07
2018-03-18T22:52:20.419Z,99949.20
2018-03-18T22:54:49.371Z,99947.44
2018-03-18T22:57:19.330Z,99951.79
2018-03-18T22:59:48.834Z,99951.37
2018-03-18T23:02:17.727Z,99951.88
2018-03-18T23:04:46.675Z,99950.02
2018-03-18T23:07:17.137Z,99948.68
2018-03-18T23:09:46.111Z,99954.91
2018-03-18T23:12:15.148Z,99950.22
2018-03-18T23:14:44.091Z,99947.71
2018-03-18T23:17:13.026Z,99950.88
2018-03-18T23:19:42.372Z,99942.98
2018-03-18T23:22:11.945Z,99943.45
2018-03-18T23:24:40.954Z,99949.53
2018-03-18T23:27:11.478Z,99940.00
2018-03-18T23:29:40.366Z,99942.69
2018-03-18T23:32:23.838Z,99946.48
2018-03-18T23:34:53.380Z,99947.42
2018-03-18T23:37:22.470Z,99943.89
2018-03-18T23:39:51.705Z,99949.53
2018-03-18T23:42:20.579Z,99951.34
2018-03-18T23:44:49.761Z,99950.30
2018-03-18T23:47:18.814Z,99949.11
2018-03-18T23:49:48.304Z,99946.86
2018-03-18T23:52:17.210Z,99950.73
2018-03-18T23:54:46.098Z,99949.36
2018-03-18T23:57:14.967Z,99946.38
2018-03-18T23:59:43.879Z,99955.30
